sensor_id;sensor_type;location;lat;lon;timestamp;pressure;altitude;pressure_sealevel;temperature;humidity
84116;BME280;74211;52.234;9.860;2024-02-21T00:01:36;101504.09;;;8.35;84.70
84116;BME280;74211;52.234;9.860;2024-02-21T00:04:06;101501.81;;;8.32;85.00
84116;BME280;74211;52.234;9.860;2024-02-21T00:06:36;101512.22;;;8.32;84.83
84116;BME280;74211;52.234;9.860;2024-02-21T00:09:08;101508.94;;;8.30;84.93
84116;BME280;74211;52.234;9.860;2024-02-21T00:11:39;101505.38;;;8.31;85.02
84116;BME280;74211;52.234;9.860;2024-02-21T00:14:09;101490.47;;;8.33;84.56
84116;BME280;74211;52.234;9.860;2024-02-21T00:16:39;101500.84;;;8.33;85.76
84116;BME280;74211;52.234;9.860;2024-02-21T00:19:09;101493.06;;;8.33;85.33
84116;BME280;74211;52.234;9.860;2024-02-21T00:21:39;101488.94;;;8.30;85.78
84116;BME280;74211;52.234;9.860;2024-02-21T00:24:12;101493.06;;;8.33;85.42
84116;BME280;74211;52.234;9.860;2024-02-21T00:26:42;101488.94;;;8.30;85.67
84116;BME280;74211;52.234;9.860;2024-02-21T00:29:12;101482.66;;;8.33;85.59
84116;BME280;74211;52.234;9.860;2024-02-21T00:31:42;101481.03;;;8.32;85.60
84116;BME280;74211;52.234;9.860;2024-02-21T00:34:12;101477.13;;;8.36;85.64
84116;BME280;74211;52.234;9.860;2024-02-21T00:36:42;101472.13;;;8.35;85.53
84116;BME280;74211;52.234;9.860;2024-02-21T00:39:14;101477.13;;;8.36;86.08
84116;BME280;74211;52.234;9.860;2024-02-21T00:41:44;101470.28;;;8.35;86.21
84116;BME280;74211;52.234;9.860;2024-02-21T00:44:15;101462.69;;;8.33;85.96
84116;BME280;74211;52.234;9.860;2024-02-21T00:46:45;101464.94;;;8.37;86.25
84116;BME280;74211;52.234;9.860;2024-02-21T00:49:15;101467.88;;;8.33;86.42
84116;BME280;74211;52.234;9.860;2024-02-21T00:51:44;101453.09;;;8.34;85.83
84116;BME280;74211;52.234;9.860;2024-02-21T00:54:17;101454.69;;;8.35;86.13
84116;BME280;74211;52.234;9.860;2024-02-21T00:56:47;101456.34;;;8.36;86.39
84116;BME280;74211;52.234;9.860;2024-02-21T00:59:18;101450.66;;;8.32;85.54
84116;BME280;74211;52.234;9.860;2024-02-21T01:01:48;101456.34;;;8.36;86.16
84116;BME280;74211;52.234;9.860;2024-02-21T01:04:18;101444.81;;;8.39;85.30
84116;BME280;74211;52.234;9.860;2024-02-21T01:06:48;101446.59;;;8.38;86.13
84116;BME280;74211;52.234;9.860;2024-02-21T01:09:20;101449.84;;;8.40;85.99
84116;BME280;74211;52.234;9.860;2024-02-21T01:11:52;101433.13;;;8.43;85.89
84116;BME280;74211;52.234;9.860;2024-02-21T01:14:25;101432.47;;;8.41;85.38
84116;BME280;74211;52.234;9.860;2024-02-21T01:16:55;101426.97;;;8.44;85.65
84116;BME280;74211;52.234;9.860;2024-02-21T01:19:25;101423.03;;;8.40;85.57
84116;BME280;74211;52.234;9.860;2024-02-21T01:21:55;101424.69;;;8.41;85.36
84116;BME280;74211;52.234;9.860;2024-02-21T01:24:28;101426.81;;;8.45;84.87
84116;BME280;74211;52.234;9.860;2024-02-21T01:26:58;101419.69;;;8.47;84.95
84116;BME280;74211;52.234;9.860;2024-02-21T01:29:28;101408.63;;;8.45;84.87
84116;BME280;74211;52.234;9.860;2024-02-21T01:31:57;101414.47;;;8.47;84.89
84116;BME280;74211;52.234;9.860;2024-02-21T01:34:28;101409.13;;;8.49;84.72
84116;BME280;74211;52.234;9.860;2024-02-21T01:36:59;101418.88;;;8.47;84.41
84116;BME280;74211;52.234;9.860;2024-02-21T01:39:34;101406.53;;;8.49;84.19
84116;BME280;74211;52.234;9.860;2024-02-21T01:42:04;101399.03;;;8.46;84.10
84116;BME280;74211;52.234;9.860;2024-02-21T01:44:34;101398.22;;;8.45;85.07
84116;BME280;74211;52.234;9.860;2024-02-21T01:47:05;101396.78;;;8.51;83.87
84116;BME280;74211;52.234;9.860;2024-02-21T01:49:35;101396.94;;;8.49;84.14
84116;BME280;74211;52.234;9.860;2024-02-21T01:52:05;101401.97;;;8.51;83.77
84116;BME280;74211;52.234;9.860;2024-02-21T01:54:38;101400.03;;;8.53;83.80
84116;BME280;74211;52.234;9.860;2024-02-21T01:57:08;101400.84;;;8.53;84.35
84116;BME280;74211;52.234;9.860;2024-02-21T01:59:38;101399.53;;;8.49;84.31
84116;BME280;74211;52.234;9.860;2024-02-21T02:02:08;101397.09;;;8.56;83.84
84116;BME280;74211;52.234;9.860;2024-02-21T02:04:39;101383.44;;;8.46;83.75
84116;BME280;74211;52.234;9.860;2024-02-21T02:07:09;101391.75;;;8.57;83.17
84116;BME280;74211;52.234;9.860;2024-02-21T02:09:42;101379.72;;;8.56;83.57
84116;BME280;74211;52.234;9.860;2024-02-21T02:12:12;101374.72;;;8.63;83.29
84116;BME280;74211;52.234;9.860;2024-02-21T02:14:42;101375.84;;;8.60;83.30
84116;BME280;74211;52.234;9.860;2024-02-21T02:17:12;101366.56;;;8.58;83.92
84116;BME280;74211;52.234;9.860;2024-02-21T02:19:43;101362.00;;;8.60;82.78
84116;BME280;74211;52.234;9.860;2024-02-21T02:22:16;101361.72;;;8.63;82.95
84116;BME280;74211;52.234;9.860;2024-02-21T02:24:50;101351.31;;;8.63;83.16
84116;BME280;74211;52.234;9.860;2024-02-21T02:27:20;101349.50;;;8.63;82.67
84116;BME280;74211;52.234;9.860;2024-02-21T02:29:51;101356.34;;;8.64;82.92
84116;BME280;74211;52.234;9.860;2024-02-21T02:32:21;101350.84;;;8.67;82.68
84116;BME280;74211;52.234;9.860;2024-02-21T02:34:51;101348.22;;;8.67;82.56
84116;BME280;74211;52.234;9.860;2024-02-21T02:37:22;101343.03;;;8.67;82.71
84116;BME280;74211;52.234;9.860;2024-02-21T02:39:55;101334.41;;;8.67;82.83
84116;BME280;74211;52.234;9.860;2024-02-21T02:42:25;101324.81;;;8.67;82.79
84116;BME280;74211;52.234;9.860;2024-02-21T02:44:54;101315.72;;;8.72;82.40
84116;BME280;74211;52.234;9.860;2024-02-21T02:47:24;101318.66;;;8.68;82.23
84116;BME280;74211;52.234;9.860;2024-02-21T02:49:54;101321.56;;;8.65;82.79
84116;BME280;74211;52.234;9.860;2024-02-21T02:52:24;101316.03;;;8.68;82.58
84116;BME280;74211;52.234;9.860;2024-02-21T02:54:58;101313.44;;;8.77;82.00
84116;BME280;74211;52.234;9.860;2024-02-21T02:57:29;101306.09;;;8.72;82.35
84116;BME280;74211;52.234;9.860;2024-02-21T02:59:58;101303.84;;;8.77;81.85
84116;BME280;74211;52.234;9.860;2024-02-21T03:02:28;101287.59;;;8.67;81.62
84116;BME280;74211;52.234;9.860;2024-02-21T03:04:58;101300.28;;;8.78;81.15
84116;BME280;74211;52.234;9.860;2024-02-21T03:07:28;101295.41;;;8.83;80.83
84116;BME280;74211;52.234;9.860;2024-02-21T03:10:02;101298.31;;;8.80;81.19
84116;BME280;74211;52.234;9.860;2024-02-21T03:12:32;101297.34;;;8.81;81.38
84116;BME280;74211;52.234;9.860;2024-02-21T03:15:02;101293.13;;;8.80;80.91
84116;BME280;74211;52.234;9.860;2024-02-21T03:17:32;101265.66;;;8.70;80.95
84116;BME280;74211;52.234;9.860;2024-02-21T03:20:03;101277.34;;;8.82;81.03
84116;BME280;74211;52.234;9.860;2024-02-21T03:22:39;101262.72;;;8.81;80.75
84116;BME280;74211;52.234;9.860;2024-02-21T03:25:11;101255.25;;;8.86;80.11
84116;BME280;74211;52.234;9.860;2024-02-21T03:27:42;101257.84;;;8.86;80.61
84116;BME280;74211;52.234;9.860;2024-02-21T03:30:12;101248.59;;;8.83;80.67
84116;BME280;74211;52.234;9.860;2024-02-21T03:32:42;101235.56;;;8.83;80.39
84116;BME280;74211;52.234;9.860;2024-02-21T03:35:12;101231.34;;;8.82;79.20
84116;BME280;74211;52.234;9.860;2024-02-21T03:37:44;101228.91;;;8.89;79.83
84116;BME280;74211;52.234;9.860;2024-02-21T03:40:17;101221.91;;;8.89;79.33
84116;BME280;74211;52.234;9.860;2024-02-21T03:42:47;101198.50;;;8.89;79.08
84116;BME280;74211;52.234;9.860;2024-02-21T03:45:17;101193.47;;;8.88;78.84
84116;BME280;74211;52.234;9.860;2024-02-21T03:47:47;101194.94;;;8.90;78.82
84116;BME280;74211;52.234;9.860;2024-02-21T03:50:18;101191.31;;;8.91;78.46
84116;BME280;74211;52.234;9.860;2024-02-21T03:52:47;101195.22;;;8.95;78.95
84116;BME280;74211;52.234;9.860;2024-02-21T03:55:20;101200.28;;;8.89;78.87
84116;BME280;74211;52.234;9.860;2024-02-21T03:57:50;101185.31;;;8.91;78.51
84116;BME280;74211;52.234;9.860;2024-02-21T04:00:20;101178.81;;;8.87;78.99
84116;BME280;74211;52.234;9.860;2024-02-21T04:02:50;101177.19;;;8.78;80.07
84116;BME280;74211;52.234;9.860;2024-02-21T04:05:20;101191.84;;;8.79;79.39
84116;BME280;74211;52.234;9.860;2024-02-21T04:07:50;101196.72;;;8.82;79.41
84116;BME280;74211;52.234;9.860;2024-02-21T04:10:23;101206.97;;;8.83;79.68
84116;BME280;74211;52.234;9.860;2024-02-21T04:12:53;101199.00;;;8.85;79.41
84116;BME280;74211;52.234;9.860;2024-02-21T04:15:23;101200.94;;;8.83;79.11
84116;BME280;74211;52.234;9.860;2024-02-21T04:17:54;101212.97;;;8.84;79.54
84116;BME280;74211;52.234;9.860;2024-02-21T04:20:24;101219.97;;;8.83;79.48
84116;BME280;74211;52.234;9.860;2024-02-21T04:22:54;101220.13;;;8.82;79.66
84116;BME280;74211;52.234;9.860;2024-02-21T04:25:26;101224.34;;;8.83;79.16
84116;BME280;74211;52.234;9.860;2024-02-21T04:27:57;101225.66;;;8.87;79.02
84116;BME280;74211;52.234;9.860;2024-02-21T04:30:27;101226.94;;;8.91;78.74
84116;BME280;74211;52.234;9.860;2024-02-21T04:32:57;101228.41;;;8.93;78.68
84116;BME280;74211;52.234;9.860;2024-02-21T04:35:27;101228.75;;;8.90;78.84
84116;BME280;74211;52.234;9.860;2024-02-21T04:37:57;101238.66;;;8.95;78.95
84116;BME280;74211;52.234;9.860;2024-02-21T04:40:30;101235.75;;;8.90;79.11
84116;BME280;74211;52.234;9.860;2024-02-21T04:43:00;101242.53;;;8.91;79.14
84116;BME280;74211;52.234;9.860;2024-02-21T04:45:31;101233.13;;;8.90;79.71
84116;BME280;74211;52.234;9.860;2024-02-21T04:48:00;101229.06;;;8.87;79.13
84116;BME280;74211;52.234;9.860;2024-02-21T04:50:30;101234.13;;;8.89;79.20
84116;BME280;74211;52.234;9.860;2024-02-21T04:53:00;101223.72;;;8.89;78.99
84116;BME280;74211;52.234;9.860;2024-02-21T04:55:33;101229.53;;;8.91;79.16
84116;BME280;74211;52.234;9.860;2024-02-21T04:58:03;101228.09;;;8.88;79.35
84116;BME280;74211;52.234;9.860;2024-02-21T05:00:33;101231.84;;;8.86;79.14
84116;BME280;74211;52.234;9.860;2024-02-21T05:03:04;101237.53;;;8.89;78.79
84116;BME280;74211;52.234;9.860;2024-02-21T05:05:34;101224.97;;;8.93;78.75
84116;BME280;74211;52.234;9.860;2024-02-21T05:08:05;101225.97;;;8.92;78.93
84116;BME280;74211;52.234;9.860;2024-02-21T05:10:37;101215.56;;;8.84;78.89
84116;BME280;74211;52.234;9.860;2024-02-21T05:13:07;101221.25;;;8.95;78.46
84116;BME280;74211;52.234;9.860;2024-02-21T05:15:37;101231.81;;;8.94;78.91
84116;BME280;74211;52.234;9.860;2024-02-21T05:18:07;101231.97;;;8.92;78.32
84116;BME280;74211;52.234;9.860;2024-02-21T05:20:37;101223.69;;;8.97;78.50
84116;BME280;74211;52.234;9.860;2024-02-21T05:23:08;101222.72;;;8.98;78.97
84116;BME280;74211;52.234;9.860;2024-02-21T05:25:40;101210.19;;;8.93;78.75
84116;BME280;74211;52.234;9.860;2024-02-21T05:28:10;101216.19;;;8.94;78.79
84116;BME280;74211;52.234;9.860;2024-02-21T05:30:40;101212.94;;;8.92;78.70
84116;BME280;74211;52.234;9.860;2024-02-21T05:33:10;101214.56;;;8.93;78.69
84116;BME280;74211;52.234;9.860;2024-02-21T05:35:48;101212.63;;;8.95;78.74
84116;BME280;74211;52.234;9.860;2024-02-21T05:38:18;101201.91;;;8.90;78.93
84116;BME280;74211;52.234;9.860;2024-02-21T05:40:51;101206.47;;;8.88;79.15
84116;BME280;74211;52.234;9.860;2024-02-21T05:43:21;101212.50;;;8.88;79.09
84116;BME280;74211;52.234;9.860;2024-02-21T05:45:51;101207.28;;;8.88;79.57
84116;BME280;74211;52.234;9.860;2024-02-21T05:48:22;101200.94;;;8.83;79.51
84116;BME280;74211;52.234;9.860;2024-02-21T05:50:52;101199.97;;;8.84;79.54
84116;BME280;74211;52.234;9.860;2024-02-21T05:53:22;101200.63;;;8.86;79.63
84116;BME280;74211;52.234;9.860;2024-02-21T05:55:54;101182.88;;;8.81;79.82
84116;BME280;74211;52.234;9.860;2024-02-21T05:58:24;101190.84;;;8.80;79.91
84116;BME280;74211;52.234;9.860;2024-02-21T06:00:54;101198.97;;;8.77;79.66
84116;BME280;74211;52.234;9.860;2024-02-21T06:03:25;101197.84;;;8.79;79.78
84116;BME280;74211;52.234;9.860;2024-02-21T06:05:54;101190.84;;;8.80;79.39
84116;BME280;74211;52.234;9.860;2024-02-21T06:08:24;101168.59;;;8.69;79.58
84116;BME280;74211;52.234;9.860;2024-02-21T06:10:57;101192.00;;;8.85;79.67
84116;BME280;74211;52.234;9.860;2024-02-21T06:13:27;101179.81;;;8.78;79.49
84116;BME280;74211;52.234;9.860;2024-02-21T06:15:57;101186.94;;;8.76;79.71
84116;BME280;74211;52.234;9.860;2024-02-21T06:18:27;101174.47;;;8.71;80.20
84116;BME280;74211;52.234;9.860;2024-02-21T06:20:57;101172.03;;;8.70;80.00
84116;BME280;74211;52.234;9.860;2024-02-21T06:23:27;101176.91;;;8.64;80.25
84116;BME280;74211;52.234;9.860;2024-02-21T06:26:00;101172.03;;;8.70;80.36
84116;BME280;74211;52.234;9.860;2024-02-21T06:28:30;101182.59;;;8.68;80.28
84116;BME280;74211;52.234;9.860;2024-02-21T06:31:00;101167.16;;;8.66;80.14
84116;BME280;74211;52.234;9.860;2024-02-21T06:33:30;101167.78;;;8.68;80.37
84116;BME280;74211;52.234;9.860;2024-02-21T06:36:00;101154.63;;;8.62;80.01
84116;BME280;74211;52.234;9.860;2024-02-21T06:38:30;101154.47;;;8.63;80.38
84116;BME280;74211;52.234;9.860;2024-02-21T06:41:03;101163.72;;;8.58;80.43
84116;BME280;74211;52.234;9.860;2024-02-21T06:43:34;101150.06;;;8.56;80.50
84116;BME280;74211;52.234;9.860;2024-02-21T06:46:04;101142.44;;;8.46;80.49
84116;BME280;74211;52.234;9.860;2024-02-21T06:48:35;101155.44;;;8.62;80.01
84116;BME280;74211;52.234;9.860;2024-02-21T06:51:17;101151.88;;;8.63;80.41
84116;BME280;74211;52.234;9.860;2024-02-21T06:53:47;101146.50;;;8.65;80.06
84116;BME280;74211;52.234;9.860;2024-02-21T06:56:20;101149.91;;;8.65;80.11
84116;BME280;74211;52.234;9.860;2024-02-21T06:58:53;101155.59;;;8.69;80.07
84116;BME280;74211;52.234;9.860;2024-02-21T07:01:24;101155.44;;;8.71;79.53
84116;BME280;74211;52.234;9.860;2024-02-21T07:03:54;101152.47;;;8.74;79.60
84116;BME280;74211;52.234;9.860;2024-02-21T07:06:24;101166.47;;;8.73;79.88
84116;BME280;74211;52.234;9.860;2024-02-21T07:08:54;101167.28;;;8.73;79.83
84116;BME280;74211;52.234;9.860;2024-02-21T07:11:26;101169.72;;;8.75;79.39
84116;BME280;74211;52.234;9.860;2024-02-21T07:13:56;101162.06;;;8.73;79.67
84116;BME280;74211;52.234;9.860;2024-02-21T07:16:24;101161.09;;;8.74;79.48
84116;BME280;74211;52.234;9.860;2024-02-21T07:18:55;101169.41;;;8.78;79.40
84116;BME280;74211;52.234;9.860;2024-02-21T07:21:26;101160.78;;;8.77;79.47
84116;BME280;74211;52.234;9.860;2024-02-21T07:23:56;101174.59;;;8.78;79.41
84116;BME280;74211;52.234;9.860;2024-02-21T07:26:28;101167.44;;;8.80;79.27
84116;BME280;74211;52.234;9.860;2024-02-21T07:28:58;101158.66;;;8.81;79.12
84116;BME280;74211;52.234;9.860;2024-02-21T07:31:28;101151.69;;;8.81;78.81
84116;BME280;74211;52.234;9.860;2024-02-21T07:33:58;101161.09;;;8.90;79.28
84116;BME280;74211;52.234;9.860;2024-02-21T07:36:29;101156.69;;;8.91;79.31
84116;BME280;74211;52.234;9.860;2024-02-21T07:38:59;101145.66;;;8.89;79.25
84116;BME280;74211;52.234;9.860;2024-02-21T07:41:32;101146.47;;;8.89;79.60
84116;BME280;74211;52.234;9.860;2024-02-21T07:44:02;101149.03;;;8.97;79.43
84116;BME280;74211;52.234;9.860;2024-02-21T07:46:32;101141.41;;;8.96;78.97
84116;BME280;74211;52.234;9.860;2024-02-21T07:49:02;101147.41;;;9.05;78.90
84116;BME280;74211;52.234;9.860;2024-02-21T07:51:32;101141.41;;;8.96;78.90
84116;BME280;74211;52.234;9.860;2024-02-21T07:54:03;101156.06;;;8.89;78.98
84116;BME280;74211;52.234;9.860;2024-02-21T07:56:38;101151.66;;;8.89;79.01
84116;BME280;74211;52.234;9.860;2024-02-21T07:59:11;101156.69;;;8.99;79.16
84116;BME280;74211;52.234;9.860;2024-02-21T08:01:41;101150.81;;;9.05;78.86
84116;BME280;74211;52.234;9.860;2024-02-21T08:04:12;101150.16;;;9.03;79.36
84116;BME280;74211;52.234;9.860;2024-02-21T08:06:42;101152.44;;;9.06;79.23
84116;BME280;74211;52.234;9.860;2024-02-21T08:09:15;101154.41;;;9.04;78.32
84116;BME280;74211;52.234;9.860;2024-02-21T08:11:49;101146.44;;;9.06;78.35
84116;BME280;74211;52.234;9.860;2024-02-21T08:14:19;101146.44;;;9.06;78.28
84116;BME280;74211;52.234;9.860;2024-02-21T08:16:48;101139.25;;;9.08;78.46
84116;BME280;74211;52.234;9.860;2024-02-21T08:19:20;101144.94;;;9.11;77.92
84116;BME280;74211;52.234;9.860;2024-02-21T08:21:50;101138.47;;;9.07;77.92
84116;BME280;74211;52.234;9.860;2024-02-21T08:24:20;101154.69;;;9.17;77.62
84116;BME280;74211;52.234;9.860;2024-02-21T08:26:53;101146.59;;;9.04;77.56
84116;BME280;74211;52.234;9.860;2024-02-21T08:29:23;101149.16;;;9.12;77.37
84116;BME280;74211;52.234;9.860;2024-02-21T08:31:54;101154.53;;;9.11;76.96
84116;BME280;74211;52.234;9.860;2024-02-21T08:34:23;101137.59;;;9.15;76.68
84116;BME280;74211;52.234;9.860;2024-02-21T08:36:54;101145.56;;;9.21;77.02
84116;BME280;74211;52.234;9.860;2024-02-21T08:39:23;101132.84;;;9.26;76.64
84116;BME280;74211;52.234;9.860;2024-02-21T08:41:58;101147.50;;;9.27;76.21
84116;BME280;74211;52.234;9.860;2024-02-21T08:44:28;101145.50;;;9.29;76.12
84116;BME280;74211;52.234;9.860;2024-02-21T08:46:58;101140.63;;;9.34;76.35
84116;BME280;74211;52.234;9.860;2024-02-21T08:49:31;101126.47;;;9.29;75.69
84116;BME280;74211;52.234;9.860;2024-02-21T08:52:02;101122.47;;;9.49;75.52
84116;BME280;74211;52.234;9.860;2024-02-21T08:54:32;101112.03;;;9.57;74.81
84116;BME280;74211;52.234;9.860;2024-02-21T08:57:05;101120.09;;;9.70;74.39
84116;BME280;74211;52.234;9.860;2024-02-21T08:59:34;101118.91;;;9.81;74.59
84116;BME280;74211;52.234;9.860;2024-02-21T09:02:04;101115.13;;;9.84;73.79
84116;BME280;74211;52.234;9.860;2024-02-21T09:04:36;101115.59;;;9.87;72.37
84116;BME280;74211;52.234;9.860;2024-02-21T09:07:06;101123.13;;;9.82;72.56
84116;BME280;74211;52.234;9.860;2024-02-21T09:09:36;101119.88;;;9.80;72.60
84116;BME280;74211;52.234;9.860;2024-02-21T09:12:09;101116.13;;;9.83;72.49
84116;BME280;74211;52.234;9.860;2024-02-21T09:14:42;101112.47;;;9.92;72.15
84116;BME280;74211;52.234;9.860;2024-02-21T09:17:16;101119.56;;;9.83;70.93
84116;BME280;74211;52.234;9.860;2024-02-21T09:19:48;101112.72;;;9.82;70.40
84116;BME280;74211;52.234;9.860;2024-02-21T09:22:17;101117.56;;;9.85;70.28
84116;BME280;74211;52.234;9.860;2024-02-21T09:24:48;101105.63;;;9.68;70.10
84116;BME280;74211;52.234;9.860;2024-02-21T09:27:20;101126.34;;;9.84;70.42
84116;BME280;74211;52.234;9.860;2024-02-21T09:29:50;101107.72;;;9.95;70.12
84116;BME280;74211;52.234;9.860;2024-02-21T09:32:20;101110.16;;;9.97;69.85
84116;BME280;74211;52.234;9.860;2024-02-21T09:34:51;101105.97;;;10.19;70.34
84116;BME280;74211;52.234;9.860;2024-02-21T09:37:26;101099.97;;;10.10;69.46
84116;BME280;74211;52.234;9.860;2024-02-21T09:39:56;101093.59;;;10.13;68.98
84116;BME280;74211;52.234;9.860;2024-02-21T09:42:37;101090.59;;;10.24;68.98
84116;BME280;74211;52.234;9.860;2024-02-21T09:45:09;101099.22;;;10.24;68.16
84116;BME280;74211;52.234;9.860;2024-02-21T09:47:50;101092.78;;;10.35;67.97
84116;BME280;74211;52.234;9.860;2024-02-21T09:50:26;101074.78;;;10.40;67.24
84116;BME280;74211;52.234;9.860;2024-02-21T09:52:58;101090.00;;;10.36;67.09
84116;BME280;74211;52.234;9.860;2024-02-21T09:55:31;101091.41;;;10.24;66.39
84116;BME280;74211;52.234;9.860;2024-02-21T09:58:05;101086.66;;;10.28;66.69
84116;BME280;74211;52.234;9.860;2024-02-21T10:00:35;101082.06;;;10.30;66.19
84116;BME280;74211;52.234;9.860;2024-02-21T10:03:06;101088.69;;;10.55;66.71
84116;BME280;74211;52.234;9.860;2024-02-21T10:05:47;101079.88;;;10.56;66.59
84116;BME280;74211;52.234;9.860;2024-02-21T10:08:19;101081.84;;;10.54;65.72
84116;BME280;74211;52.234;9.860;2024-02-21T10:10:49;101080.34;;;10.74;66.01
84116;BME280;74211;52.234;9.860;2024-02-21T10:13:28;101076.47;;;10.85;65.68
84116;BME280;74211;52.234;9.860;2024-02-21T10:16:07;101080.41;;;10.81;65.51
84116;BME280;74211;52.234;9.860;2024-02-21T10:18:37;101070.34;;;10.93;65.74
84116;BME280;74211;52.234;9.860;2024-02-21T10:21:08;101065.28;;;11.06;64.53
84116;BME280;74211;52.234;9.860;2024-02-21T10:23:44;101065.38;;;10.98;64.70
84116;BME280;74211;52.234;9.860;2024-02-21T10:26:15;101052.25;;;10.91;64.92
84116;BME280;74211;52.234;9.860;2024-02-21T10:28:48;101056.72;;;11.12;65.07
84116;BME280;74211;52.234;9.860;2024-02-21T10:31:23;101057.59;;;11.19;64.55
84116;BME280;74211;52.234;9.860;2024-02-21T10:33:55;101042.41;;;11.08;62.54
84116;BME280;74211;52.234;9.860;2024-02-21T10:36:26;101046.56;;;11.38;62.94
84116;BME280;74211;52.234;9.860;2024-02-21T10:38:57;101031.66;;;11.18;61.69
84116;BME280;74211;52.234;9.860;2024-02-21T10:41:28;101036.22;;;11.09;62.65
84116;BME280;74211;52.234;9.860;2024-02-21T10:44:05;101031.38;;;11.27;62.74
84116;BME280;74211;52.234;9.860;2024-02-21T10:46:38;101021.97;;;11.48;62.23
84116;BME280;74211;52.234;9.860;2024-02-21T10:49:15;101014.00;;;11.56;61.81
84116;BME280;74211;52.234;9.860;2024-02-21T10:51:48;101011.81;;;11.38;62.17
84116;BME280;74211;52.234;9.860;2024-02-21T10:57:17;100973.75;;;11.50;62.41
84116;BME280;74211;52.234;9.860;2024-02-21T10:59:51;100995.16;;;11.82;62.05
84116;BME280;74211;52.234;9.860;2024-02-21T11:02:23;100973.63;;;11.37;60.98
84116;BME280;74211;52.234;9.860;2024-02-21T11:04:56;100990.63;;;11.48;60.88
84116;BME280;74211;52.234;9.860;2024-02-21T11:07:27;100982.59;;;11.49;60.29
84116;BME280;74211;52.234;9.860;2024-02-21T11:10:00;100982.00;;;11.75;59.81
84116;BME280;74211;52.234;9.860;2024-02-21T11:12:32;100982.13;;;11.88;59.15
84116;BME280;74211;52.234;9.860;2024-02-21T11:15:09;100968.50;;;11.71;58.76
84116;BME280;74211;52.234;9.860;2024-02-21T11:17:41;100962.16;;;11.59;58.82
84116;BME280;74211;52.234;9.860;2024-02-21T11:20:16;100956.94;;;11.81;59.91
84116;BME280;74211;52.234;9.860;2024-02-21T11:22:46;100944.94;;;11.65;59.89
84116;BME280;74211;52.234;9.860;2024-02-21T11:25:21;100939.91;;;11.91;59.54
84116;BME280;74211;52.234;9.860;2024-02-21T11:27:59;100935.94;;;11.74;59.04
84116;BME280;74211;52.234;9.860;2024-02-21T11:30:34;100941.81;;;11.76;59.73
84116;BME280;74211;52.234;9.860;2024-02-21T11:33:07;100932.63;;;11.80;59.13
84116;BME280;74211;52.234;9.860;2024-02-21T11:35:37;100923.69;;;11.74;58.79
84116;BME280;74211;52.234;9.860;2024-02-21T11:38:08;100926.19;;;11.83;58.09
84116;BME280;74211;52.234;9.860;2024-02-21T11:40:44;100922.94;;;12.08;58.16
84116;BME280;74211;52.234;9.860;2024-02-21T11:43:15;100921.22;;;12.22;57.33
84116;BME280;74211;52.234;9.860;2024-02-21T11:45:48;100915.97;;;11.88;57.92
84116;BME280;74211;52.234;9.860;2024-02-21T11:48:18;100903.97;;;11.72;57.90
84116;BME280;74211;52.234;9.860;2024-02-21T11:50:54;100901.31;;;11.93;58.13
84116;BME280;74211;52.234;9.860;2024-02-21T11:53:24;100905.41;;;12.02;57.71
84116;BME280;74211;52.234;9.860;2024-02-21T11:56:01;100900.88;;;12.18;57.36
84116;BME280;74211;52.234;9.860;2024-02-21T11:58:31;100895.44;;;12.19;57.48
84116;BME280;74211;52.234;9.860;2024-02-21T12:01:05;100884.59;;;12.22;56.80
84116;BME280;74211;52.234;9.860;2024-02-21T12:03:35;100875.47;;;12.11;55.32
84116;BME280;74211;52.234;9.860;2024-02-21T12:06:06;100869.69;;;12.16;56.24
84116;BME280;74211;52.234;9.860;2024-02-21T12:08:43;100875.88;;;12.63;55.41
84116;BME280;74211;52.234;9.860;2024-02-21T12:11:20;100846.91;;;12.64;55.14
84116;BME280;74211;52.234;9.860;2024-02-21T12:14:00;100859.75;;;12.53;54.38
84116;BME280;74211;52.234;9.860;2024-02-21T12:16:36;100851.41;;;12.29;55.50
84116;BME280;74211;52.234;9.860;2024-02-21T12:19:07;100851.56;;;12.14;57.45
84116;BME280;74211;52.234;9.860;2024-02-21T12:21:37;100847.09;;;12.08;56.36
84116;BME280;74211;52.234;9.860;2024-02-21T12:24:14;100844.38;;;12.23;56.54
84116;BME280;74211;52.234;9.860;2024-02-21T12:26:44;100844.75;;;12.20;56.25
84116;BME280;74211;52.234;9.860;2024-02-21T12:29:14;100831.41;;;12.08;56.12
84116;BME280;74211;52.234;9.860;2024-02-21T12:31:47;100822.56;;;12.09;56.05
84116;BME280;74211;52.234;9.860;2024-02-21T12:34:17;100827.97;;;12.56;55.83
84116;BME280;74211;52.234;9.860;2024-02-21T12:37:04;100831.00;;;12.66;55.98
84116;BME280;74211;52.234;9.860;2024-02-21T12:39:34;100827.59;;;12.72;56.00
84116;BME280;74211;52.234;9.860;2024-02-21T12:42:05;100806.56;;;12.32;56.17
84116;BME280;74211;52.234;9.860;2024-02-21T12:44:35;100820.28;;;12.41;56.39
84116;BME280;74211;52.234;9.860;2024-02-21T12:47:08;100812.66;;;12.53;57.30
84116;BME280;74211;52.234;9.860;2024-02-21T12:49:40;100816.25;;;12.38;56.70
84116;BME280;74211;52.234;9.860;2024-02-21T12:52:12;100808.22;;;12.53;57.08
84116;BME280;74211;52.234;9.860;2024-02-21T12:54:43;100810.22;;;12.44;56.64
84116;BME280;74211;52.234;9.860;2024-02-21T12:57:13;100805.25;;;12.08;56.74
84116;BME280;74211;52.234;9.860;2024-02-21T12:59:43;100809.09;;;12.12;58.19
84116;BME280;74211;52.234;9.860;2024-02-21T13:02:15;100801.13;;;12.34;57.06
84116;BME280;74211;52.234;9.860;2024-02-21T13:04:47;100810.22;;;12.44;56.41
84116;BME280;74211;52.234;9.860;2024-02-21T13:07:17;100790.63;;;12.21;56.75
84116;BME280;74211;52.234;9.860;2024-02-21T13:09:47;100813.50;;;12.60;56.87
84116;BME280;74211;52.234;9.860;2024-02-21T13:12:17;100803.63;;;12.68;56.30
84116;BME280;74211;52.234;9.860;2024-02-21T13:14:47;100788.81;;;12.28;56.49
84116;BME280;74211;52.234;9.860;2024-02-21T13:17:19;100791.03;;;12.18;58.02
84116;BME280;74211;52.234;9.860;2024-02-21T13:19:50;100776.38;;;12.30;58.46
84116;BME280;74211;52.234;9.860;2024-02-21T13:22:20;100767.09;;;12.21;58.39